createdAt,value
2023-02-02T00:02:12.309Z,5.00
2023-02-02T00:04:40.281Z,4.50
2023-02-02T00:07:09.304Z,5.00
2023-02-02T00:09:37.444Z,4.80
2023-02-02T00:12:05.836Z,5.40
2023-02-02T00:14:33.850Z,5.70
2023-02-02T00:17:01.972Z,5.70
2023-02-02T00:19:31.704Z,5.00
2023-02-02T00:22:00.399Z,4.70
2023-02-02T00:24:28.734Z,5.00
2023-02-02T00:26:59.060Z,4.30
2023-02-02T00:29:30.587Z,4.70
2023-02-02T00:31:58.779Z,4.20
2023-02-02T00:34:26.963Z,4.70
2023-02-02T00:36:55.125Z,3.20
2023-02-02T00:39:26.434Z,2.70
2023-02-02T00:41:55.373Z,3.00
2023-02-02T00:44:42.087Z,2.80
2023-02-02T00:47:10.332Z,2.80
2023-02-02T00:49:38.416Z,3.40
2023-02-02T00:52:06.595Z,3.20
2023-02-02T00:54:34.661Z,3.90
2023-02-02T00:57:04.165Z,3.50
2023-02-02T00:59:33.666Z,3.10
2023-02-02T01:02:02.426Z,4.10
2023-02-02T01:04:31.414Z,5.20
2023-02-02T01:06:59.422Z,8.60
2023-02-02T01:09:27.674Z,15.50
2023-02-02T01:11:55.965Z,16.50
2023-02-02T01:14:24.038Z,14.20
2023-02-02T01:16:52.006Z,15.00
2023-02-02T01:19:20.122Z,14.80
2023-02-02T01:21:48.143Z,8.00
2023-02-02T01:24:16.426Z,8.20
2023-02-02T01:26:44.520Z,7.20
2023-02-02T01:29:12.664Z,4.40
2023-02-02T01:31:40.892Z,3.80
2023-02-02T01:34:09.211Z,4.20
2023-02-02T01:36:38.008Z,4.10
2023-02-02T01:39:06.072Z,4.20
2023-02-02T01:41:34.151Z,8.00
2023-02-02T01:44:05.704Z,12.10
2023-02-02T01:46:36.044Z,9.50
2023-02-02T01:49:16.685Z,7.90
2023-02-02T01:51:52.331Z,4.50
2023-02-02T01:54:36.431Z,6.00
2023-02-02T01:57:12.744Z,6.70
2023-02-02T01:59:44.812Z,9.10
2023-02-02T02:02:13.261Z,6.80
2023-02-02T02:04:42.631Z,4.30
2023-02-02T02:07:11.877Z,6.30
2023-02-02T02:09:40.055Z,6.70
2023-02-02T02:12:14.556Z,6.90
2023-02-02T02:18:34.393Z,6.80
2023-02-02T02:21:36.903Z,7.70
2023-02-02T02:24:26.645Z,8.20
2023-02-02T02:27:26.567Z,6.40
2023-02-02T02:30:24.027Z,6.90
2023-02-02T02:33:06.278Z,7.80
2023-02-02T02:36:03.066Z,7.80
2023-02-02T02:38:31.647Z,7.80
2023-02-02T02:41:11.311Z,8.70
2023-02-02T02:43:43.970Z,8.80
2023-02-02T02:46:13.022Z,15.50
2023-02-02T02:48:45.441Z,11.90
2023-02-02T02:51:49.753Z,9.10
2023-02-02T02:54:23.971Z,10.60
2023-02-02T02:57:07.298Z,13.20
2023-02-02T03:00:02.170Z,33.90
2023-02-02T03:02:52.107Z,25.20
2023-02-02T03:05:26.377Z,23.50
2023-02-02T03:08:27.849Z,21.20
2023-02-02T03:10:58.482Z,21.00
2023-02-02T03:13:27.576Z,16.00
2023-02-02T03:15:56.238Z,14.60
2023-02-02T03:18:28.842Z,18.60
2023-02-02T03:20:57.404Z,13.30
2023-02-02T03:23:26.494Z,15.60
2023-02-02T03:25:56.222Z,14.30
2023-02-02T03:28:25.432Z,13.40
2023-02-02T03:30:55.095Z,12.90
2023-02-02T03:33:23.810Z,12.80
2023-02-02T03:35:51.883Z,11.80
2023-02-02T03:38:19.850Z,12.50
2023-02-02T03:40:47.918Z,13.80
2023-02-02T03:43:21.386Z,15.10
2023-02-02T03:45:56.041Z,12.00
2023-02-02T03:48:24.214Z,13.10
2023-02-02T03:50:52.481Z,12.30
2023-02-02T03:53:20.671Z,12.80
2023-02-02T03:55:48.943Z,12.70
2023-02-02T03:58:17.725Z,13.90
2023-02-02T04:00:45.801Z,13.60
2023-02-02T04:03:13.972Z,14.30
2023-02-02T04:05:41.941Z,12.90
2023-02-02T04:08:10.007Z,14.20
2023-02-02T04:10:39.818Z,15.20
2023-02-02T04:13:07.887Z,12.90
2023-02-02T04:15:35.956Z,14.10
2023-02-02T04:18:04.138Z,12.40
2023-02-02T04:20:32.413Z,11.50
2023-02-02T04:23:00.480Z,15.40
2023-02-02T04:25:28.704Z,12.20
2023-02-02T04:27:56.951Z,14.20
2023-02-02T04:30:25.103Z,14.80
2023-02-02T04:32:54.915Z,12.00
2023-02-02T04:35:23.547Z,10.20
2023-02-02T04:37:51.873Z,15.20
2023-02-02T04:40:20.150Z,14.90
2023-02-02T04:42:48.116Z,11.20
2023-02-02T04:45:16.491Z,13.20
2023-02-02T04:47:44.692Z,14.80
2023-02-02T04:50:12.745Z,14.70
2023-02-02T04:52:40.806Z,16.50
2023-02-02T04:55:09.153Z,14.30
2023-02-02T04:57:37.256Z,15.40
2023-02-02T05:00:06.599Z,14.10
2023-02-02T05:02:39.283Z,12.20
2023-02-02T05:05:10.890Z,14.10
2023-02-02T05:07:40.504Z,15.30
2023-02-02T05:10:10.016Z,16.40
2023-02-02T05:12:38.063Z,11.40
2023-02-02T05:15:06.559Z,13.90
2023-02-02T05:17:34.822Z,15.40
2023-02-02T05:20:03.218Z,15.50
2023-02-02T05:22:31.477Z,16.40
2023-02-02T05:24:59.448Z,13.00
2023-02-02T05:27:27.392Z,17.10
2023-02-02T05:29:55.490Z,13.30
2023-02-02T05:32:23.841Z,16.10
2023-02-02T05:34:51.834Z,16.40
2023-02-02T05:37:20.005Z,17.70
2023-02-02T05:39:47.976Z,17.60
2023-02-02T05:42:16.041Z,15.60
2023-02-02T05:44:44.209Z,15.90
2023-02-02T05:47:12.295Z,16.70
2023-02-02T05:49:40.355Z,15.70
2023-02-02T05:52:13.983Z,16.80
2023-02-02T05:54:41.952Z,18.40
2023-02-02T05:57:10.517Z,17.70
2023-02-02T05:59:38.590Z,16.50
2023-02-02T06:02:06.647Z,17.90
2023-02-02T06:04:34.724Z,17.20
2023-02-02T06:07:02.813Z,17.40
2023-02-02T06:09:30.862Z,16.50
2023-02-02T06:11:58.933Z,18.00
2023-02-02T06:14:27.314Z,18.90
2023-02-02T06:16:55.378Z,17.10
2023-02-02T06:19:23.660Z,17.90
2023-02-02T06:21:51.723Z,20.80
2023-02-02T06:24:19.668Z,17.30
2023-02-02T06:26:47.700Z,19.40
2023-02-02T06:29:16.234Z,16.00
2023-02-02T06:31:44.292Z,15.60
2023-02-02T06:34:15.865Z,17.20
2023-02-02T06:36:44.039Z,14.80
2023-02-02T06:39:12.625Z,14.60
2023-02-02T06:41:41.421Z,15.00
2023-02-02T06:44:09.476Z,14.00
2023-02-02T06:46:37.520Z,11.70
2023-02-02T06:49:05.624Z,13.40
2023-02-02T06:51:33.634Z,13.60
2023-02-02T06:54:02.582Z,13.10
2023-02-02T06:56:30.646Z,13.90
2023-02-02T06:58:58.725Z,18.50
2023-02-02T07:01:26.820Z,16.20
2023-02-02T07:03:54.812Z,14.80
2023-02-02T07:06:26.686Z,14.70
2023-02-02T07:09:01.829Z,12.70
2023-02-02T07:11:35.324Z,17.80
2023-02-02T07:14:05.636Z,16.80
2023-02-02T07:16:33.752Z,19.40
2023-02-02T07:19:01.931Z,21.10
2023-02-02T07:21:35.983Z,20.50
2023-02-02T07:24:05.714Z,19.80
2023-02-02T07:26:36.176Z,18.70
2023-02-02T07:29:05.081Z,17.70
2023-02-02T07:31:36.028Z,15.10
2023-02-02T07:34:04.893Z,11.80
2023-02-02T07:36:33.059Z,12.20
2023-02-02T07:39:04.121Z,9.70
2023-02-02T07:41:33.917Z,14.50
2023-02-02T07:44:02.401Z,11.10
2023-02-02T07:46:31.223Z,8.60
2023-02-02T07:48:59.349Z,6.50
2023-02-02T07:51:27.421Z,5.30
2023-02-02T07:53:58.661Z,4.20
2023-02-02T07:56:28.464Z,5.10
2023-02-02T07:58:57.797Z,4.60
2023-02-02T08:01:27.917Z,3.90
2023-02-02T08:03:59.344Z,4.40
2023-02-02T08:06:31.725Z,8.20
2023-02-02T08:09:01.202Z,8.20
2023-02-02T08:11:29.913Z,6.40
2023-02-02T08:14:00.476Z,4.10
2023-02-02T08:16:30.103Z,3.10
2023-02-02T08:18:58.899Z,2.40
2023-02-02T08:21:27.298Z,1.70
2023-02-02T08:23:55.498Z,2.00
2023-02-02T08:26:28.758Z,1.90
2023-02-02T08:28:59.919Z,2.10
2023-02-02T08:31:33.617Z,1.80
2023-02-02T08:34:03.327Z,1.90
2023-02-02T08:36:32.249Z,2.80
2023-02-02T08:39:07.976Z,2.20
2023-02-02T08:41:37.217Z,2.60
2023-02-02T08:44:11.498Z,3.30
2023-02-02T08:46:40.405Z,2.70
2023-02-02T08:49:12.368Z,2.80
2023-02-02T08:51:40.912Z,3.60
2023-02-02T08:54:09.762Z,4.50
2023-02-02T08:56:37.974Z,4.20
2023-02-02T08:59:06.142Z,3.80
2023-02-02T09:01:35.328Z,4.80
2023-02-02T09:04:06.710Z,5.30
2023-02-02T09:06:37.848Z,6.00
2023-02-02T09:09:08.462Z,5.40
2023-02-02T09:11:36.944Z,5.90
2023-02-02T09:14:06.754Z,5.40
2023-02-02T09:16:36.332Z,4.60
2023-02-02T09:19:04.950Z,4.70
2023-02-02T09:21:37.502Z,4.80
2023-02-02T09:24:11.276Z,5.20
2023-02-02T09:26:40.762Z,4.50
2023-02-02T09:29:12.823Z,4.20
2023-02-02T09:31:40.983Z,3.60
2023-02-02T09:34:11.302Z,4.80
2023-02-02T09:36:40.244Z,3.90
2023-02-02T09:39:10.632Z,3.30
2023-02-02T09:41:38.685Z,2.60
2023-02-02T09:44:37.679Z,2.30
2023-02-02T09:47:11.857Z,3.00
2023-02-02T09:49:55.513Z,2.20
2023-02-02T09:52:48.096Z,2.90
2023-02-02T09:55:25.592Z,2.20
2023-02-02T09:58:11.849Z,4.40
2023-02-02T10:00:46.236Z,4.30
2023-02-02T10:03:22.494Z,4.10
2023-02-02T10:06:14.787Z,4.00
2023-02-02T10:08:49.218Z,3.60
2023-02-02T10:11:39.289Z,3.20
2023-02-02T10:14:33.799Z,2.20
2023-02-02T10:17:27.024Z,4.30
2023-02-02T10:20:00.699Z,3.60
2023-02-02T10:22:32.199Z,5.00
2023-02-02T10:25:00.267Z,3.60
2023-02-02T10:28:04.659Z,4.50
2023-02-02T10:30:59.994Z,7.20
2023-02-02T10:33:38.016Z,6.90
2023-02-02T10:36:20.478Z,4.70
2023-02-02T10:38:56.312Z,4.70
2023-02-02T10:41:57.269Z,3.70
2023-02-02T10:44:41.425Z,2.70
2023-02-02T10:47:13.184Z,3.80
2023-02-02T10:49:41.535Z,2.60
2023-02-02T10:52:16.016Z,2.90
2023-02-02T10:55:00.940Z,3.00
2023-02-02T10:57:54.321Z,2.00
2023-02-02T11:00:30.143Z,2.90
2023-02-02T11:03:00.502Z,1.40
2023-02-02T11:05:48.045Z,1.90
2023-02-02T11:08:36.461Z,1.20
2023-02-02T11:11:22.865Z,2.00
2023-02-02T11:14:09.589Z,2.70
2023-02-02T11:16:44.422Z,2.10
2023-02-02T11:19:15.404Z,1.20
2023-02-02T11:21:47.842Z,3.30
2023-02-02T11:24:27.807Z,2.80
2023-02-02T11:26:58.680Z,1.50
2023-02-02T11:29:34.131Z,1.70
2023-02-02T11:32:30.243Z,2.00
2023-02-02T11:35:04.427Z,2.00
2023-02-02T11:37:34.831Z,1.90
2023-02-02T11:40:30.315Z,2.20
2023-02-02T11:43:02.496Z,2.40
2023-02-02T11:45:41.002Z,4.70
2023-02-02T11:48:17.866Z,1.70
2023-02-02T11:50:52.574Z,2.60
2023-02-02T11:53:28.171Z,2.90
2023-02-02T11:55:59.748Z,2.40
2023-02-02T11:58:30.331Z,5.20
2023-02-02T12:01:03.933Z,3.30
2023-02-02T12:03:38.005Z,2.10
2023-02-02T12:06:38.964Z,5.40
2023-02-02T12:09:26.105Z,3.60
2023-02-02T12:12:18.341Z,4.50
2023-02-02T12:15:24.012Z,3.10
2023-02-02T12:18:00.659Z,2.00
2023-02-02T12:20:34.499Z,5.40
2023-02-02T12:23:30.385Z,5.30
2023-02-02T12:26:19.291Z,2.50
2023-02-02T12:29:15.462Z,1.50
2023-02-02T12:31:56.062Z,1.50
2023-02-02T12:34:57.504Z,1.50
2023-02-02T12:37:43.995Z,0.90
2023-02-02T12:40:47.696Z,1.70
2023-02-02T12:43:33.263Z,1.40
2023-02-02T12:46:15.417Z,1.90
2023-02-02T12:48:50.607Z,2.50
2023-02-02T12:51:49.443Z,4.50
2023-02-02T12:54:45.449Z,4.90
2023-02-02T12:57:37.092Z,3.10
2023-02-02T13:00:35.411Z,2.90
2023-02-02T13:03:47.646Z,2.20
2023-02-02T13:06:43.397Z,2.50
2023-02-02T13:09:19.912Z,2.20
2023-02-02T13:12:01.327Z,3.00
2023-02-02T13:14:37.419Z,2.50
2023-02-02T13:17:24.177Z,3.80
2023-02-02T13:19:56.230Z,3.60
2023-02-02T13:22:30.059Z,3.50
2023-02-02T13:25:02.372Z,3.70
2023-02-02T13:27:31.833Z,2.90
2023-02-02T13:30:32.349Z,3.50
2023-02-02T13:33:22.688Z,4.30
2023-02-02T13:36:05.979Z,4.80
2023-02-02T13:38:35.101Z,5.20
2023-02-02T13:41:08.890Z,4.70
2023-02-02T13:43:42.622Z,5.00
2023-02-02T13:46:29.435Z,5.00
2023-02-02T13:49:08.410Z,4.50
2023-02-02T13:51:55.094Z,3.90
2023-02-02T13:54:44.841Z,3.30
2023-02-02T13:57:29.614Z,4.80
2023-02-02T14:00:18.331Z,3.40
2023-02-02T14:02:56.282Z,1.80
2023-02-02T14:05:33.218Z,2.60
2023-02-02T14:08:08.584Z,2.60
2023-02-02T14:10:40.183Z,3.70
2023-02-02T14:13:32.989Z,3.20
2023-02-02T14:16:06.036Z,3.20
2023-02-02T14:18:49.684Z,3.30
2023-02-02T14:21:33.080Z,5.10
2023-02-02T14:24:04.866Z,4.00
2023-02-02T14:26:46.285Z,3.60
2023-02-02T14:29:31.467Z,3.60
2023-02-02T14:32:02.689Z,2.90
2023-02-02T14:34:40.125Z,3.20
2023-02-02T14:37:14.260Z,2.20
2023-02-02T14:39:58.678Z,2.30
2023-02-02T14:43:03.949Z,1.90
2023-02-02T14:45:42.680Z,4.30
2023-02-02T14:48:17.331Z,3.70
2023-02-02T14:50:51.473Z,5.10
2023-02-02T14:53:21.295Z,4.00
2023-02-02T14:56:03.207Z,3.20
2023-02-02T14:58:36.405Z,3.20
2023-02-02T15:01:23.797Z,3.50
2023-02-02T15:04:21.175Z,2.50
2023-02-02T15:06:54.130Z,2.70
2023-02-02T15:09:23.479Z,3.00
2023-02-02T15:12:03.214Z,3.00
2023-02-02T15:14:52.957Z,3.50
2023-02-02T15:17:29.217Z,3.70
2023-02-02T15:20:19.708Z,4.80
2023-02-02T15:22:47.838Z,4.50
2023-02-02T15:25:24.778Z,4.30
2023-02-02T15:28:02.597Z,5.30
2023-02-02T15:30:34.890Z,6.00
2023-02-02T15:33:07.862Z,5.70
2023-02-02T15:35:38.125Z,4.80
2023-02-02T15:38:15.406Z,7.80
2023-02-02T15:40:44.250Z,8.90
2023-02-02T15:43:13.963Z,8.50
2023-02-02T15:45:48.243Z,8.40
2023-02-02T15:48:31.820Z,8.40
2023-02-02T15:51:02.635Z,6.90
2023-02-02T15:53:51.997Z,6.10
2023-02-02T15:56:23.374Z,6.40
2023-02-02T15:58:56.144Z,6.80
2023-02-02T16:01:25.783Z,6.00
2023-02-02T16:04:02.850Z,4.90
2023-02-02T16:06:32.434Z,6.80
2023-02-02T16:09:04.012Z,4.50
2023-02-02T16:11:32.627Z,6.20
2023-02-02T16:14:02.889Z,5.50
2023-02-02T16:16:36.264Z,8.60
2023-02-02T16:19:25.647Z,6.50
2023-02-02T16:21:54.742Z,8.10
2023-02-02T16:24:30.553Z,8.70
2023-02-02T16:27:00.555Z,6.80
2023-02-02T16:29:29.709Z,4.90
2023-02-02T16:31:58.617Z,4.90
2023-02-02T16:34:41.916Z,6.10
2023-02-02T16:37:18.051Z,8.00
2023-02-02T16:39:46.042Z,5.40
2023-02-02T16:42:29.053Z,5.20
2023-02-02T16:44:59.571Z,6.60
2023-02-02T16:47:27.873Z,7.50
2023-02-02T16:50:08.445Z,9.90
2023-02-02T16:52:56.532Z,9.70
2023-02-02T16:55:36.441Z,6.30
2023-02-02T16:58:23.532Z,5.30
2023-02-02T17:01:13.468Z,7.80
2023-02-02T17:03:54.343Z,3.70
2023-02-02T17:06:42.135Z,3.50
2023-02-02T17:09:35.120Z,3.20
2023-02-02T17:12:09.334Z,2.90
2023-02-02T17:14:53.288Z,3.40
2023-02-02T17:17:21.634Z,4.10
2023-02-02T17:19:50.236Z,3.60
2023-02-02T17:22:22.396Z,2.30
2023-02-02T17:24:52.202Z,2.70
2023-02-02T17:27:33.719Z,3.70
2023-02-02T17:30:04.112Z,4.20
2023-02-02T17:32:32.057Z,4.20
2023-02-02T17:35:00.233Z,4.80
2023-02-02T17:37:28.191Z,3.80
2023-02-02T17:39:56.728Z,4.40
2023-02-02T17:42:30.653Z,4.40
2023-02-02T17:44:58.569Z,3.50
2023-02-02T17:47:26.627Z,4.20
2023-02-02T17:49:54.759Z,3.70
2023-02-02T17:52:22.897Z,3.10
2023-02-02T17:54:51.012Z,4.30
2023-02-02T17:57:19.013Z,4.70
2023-02-02T17:59:46.932Z,3.50
2023-02-02T18:02:16.601Z,2.00
2023-02-02T18:04:45.717Z,1.90
2023-02-02T18:07:13.815Z,2.90
2023-02-02T18:09:41.917Z,2.10
2023-02-02T18:12:09.886Z,3.50
2023-02-02T18:14:38.321Z,3.20
2023-02-02T18:17:08.580Z,4.80
2023-02-02T18:19:36.602Z,5.20
2023-02-02T18:22:06.368Z,3.70
2023-02-02T18:24:34.285Z,4.70
2023-02-02T18:27:02.216Z,4.80
2023-02-02T18:29:30.532Z,4.50
2023-02-02T18:31:59.336Z,4.30
2023-02-02T18:34:32.213Z,3.80
2023-02-02T18:37:00.424Z,4.90
2023-02-02T18:39:29.355Z,4.80
2023-02-02T18:41:57.847Z,4.10
2023-02-02T18:44:25.866Z,4.50
2023-02-02T18:46:54.032Z,3.60
2023-02-02T18:49:22.213Z,4.00
2023-02-02T18:51:50.326Z,4.20
2023-02-02T18:54:18.262Z,6.10
2023-02-02T18:56:46.225Z,5.00
2023-02-02T18:59:14.313Z,4.60
2023-02-02T19:01:42.313Z,4.60
2023-02-02T19:04:10.529Z,3.80
2023-02-02T19:06:57.133Z,2.90
2023-02-02T19:09:25.251Z,3.60
2023-02-02T19:11:55.004Z,2.80
2023-02-02T19:14:28.623Z,2.80
2023-02-02T19:17:03.113Z,2.30
2023-02-02T19:19:34.792Z,1.70
2023-02-02T19:22:21.381Z,4.30
2023-02-02T19:24:49.968Z,3.10
2023-02-02T19:27:21.949Z,3.00
2023-02-02T19:29:55.098Z,3.90
2023-02-02T19:32:25.977Z,3.20
2023-02-02T19:34:58.221Z,4.00
2023-02-02T19:37:29.581Z,3.40
2023-02-02T19:40:01.313Z,4.20
2023-02-02T19:42:29.268Z,5.00
2023-02-02T19:44:57.240Z,5.20
2023-02-02T19:47:32.807Z,5.20
2023-02-02T19:50:15.850Z,4.70
2023-02-02T19:52:43.861Z,3.80
2023-02-02T19:55:43.029Z,4.30
2023-02-02T19:58:16.809Z,4.20
2023-02-02T20:00:46.907Z,3.30
2023-02-02T20:03:19.183Z,2.70
2023-02-02T20:05:49.493Z,4.40
2023-02-02T20:08:39.096Z,4.10
2023-02-02T20:11:35.655Z,4.70
2023-02-02T20:14:29.568Z,4.30
2023-02-02T20:17:03.111Z,4.50
2023-02-02T20:19:40.121Z,4.10
2023-02-02T20:22:40.967Z,3.60
2023-02-02T20:25:11.901Z,4.70
2023-02-02T20:27:39.829Z,6.20
2023-02-02T20:30:25.221Z,4.50
2023-02-02T20:33:03.930Z,4.30
2023-02-02T20:35:39.698Z,6.00
2023-02-02T20:38:28.632Z,6.90
2023-02-02T20:40:57.149Z,8.20
2023-02-02T20:43:25.069Z,8.00
2023-02-02T20:45:53.074Z,9.30
2023-02-02T20:48:21.143Z,7.90
2023-02-02T20:50:49.097Z,7.70
2023-02-02T20:53:17.059Z,8.00
2023-02-02T20:55:45.200Z,7.70
2023-02-02T20:58:13.309Z,7.40
2023-02-02T21:00:41.382Z,6.40
2023-02-02T21:03:09.442Z,6.00
2023-02-02T21:05:38.173Z,7.10
2023-02-02T21:08:07.227Z,6.30
2023-02-02T21:10:35.596Z,5.80
2023-02-02T21:13:03.573Z,5.70
2023-02-02T21:15:31.588Z,6.70
2023-02-02T21:17:59.507Z,6.40
2023-02-02T21:20:27.924Z,5.10
2023-02-02T21:22:56.994Z,6.90
2023-02-02T21:25:25.155Z,7.30
2023-02-02T21:28:00.494Z,8.50
2023-02-02T21:30:28.894Z,8.40
2023-02-02T21:32:57.245Z,4.90
2023-02-02T21:35:26.964Z,4.90
2023-02-02T21:37:57.893Z,5.60
2023-02-02T21:40:29.782Z,4.00
2023-02-02T21:43:00.091Z,3.20
2023-02-02T21:45:38.643Z,4.40
2023-02-02T21:48:19.015Z,4.80
2023-02-02T21:50:47.423Z,4.20
2023-02-02T21:53:25.429Z,3.50
2023-02-02T21:55:59.881Z,4.00
2023-02-02T21:58:34.437Z,3.80
2023-02-02T22:01:20.598Z,3.60
2023-02-02T22:03:50.398Z,3.20
2023-02-02T22:06:21.217Z,4.30
2023-02-02T22:08:49.999Z,4.50
2023-02-02T22:11:29.880Z,5.00
2023-02-02T22:14:13.600Z,4.30
2023-02-02T22:16:45.647Z,3.30
2023-02-02T22:19:38.415Z,5.00
2023-02-02T22:22:09.134Z,5.40
2023-02-02T22:24:37.094Z,6.00
2023-02-02T22:27:18.321Z,5.20
2023-02-02T22:29:46.453Z,5.80
2023-02-02T22:32:14.518Z,5.90
2023-02-02T22:34:42.596Z,7.00
2023-02-02T22:37:10.497Z,6.10
2023-02-02T22:39:42.695Z,6.50
2023-02-02T22:42:10.941Z,6.40
2023-02-02T22:44:38.971Z,5.00
2023-02-02T22:47:07.248Z,4.80
2023-02-02T22:49:35.103Z,5.20
2023-02-02T22:52:03.033Z,4.90
2023-02-02T22:54:31.353Z,4.70
2023-02-02T22:56:59.306Z,4.70
2023-02-02T22:59:27.284Z,4.10
2023-02-02T23:01:55.190Z,3.80
2023-02-02T23:04:23.147Z,4.40
2023-02-02T23:06:51.047Z,3.80
2023-02-02T23:09:19.057Z,5.10
2023-02-02T23:11:49.320Z,4.70
2023-02-02T23:14:17.551Z,5.70
2023-02-02T23:16:45.635Z,5.70
2023-02-02T23:19:13.513Z,7.10
2023-02-02T23:21:41.398Z,6.60
2023-02-02T23:24:09.424Z,6.00
2023-02-02T23:26:37.288Z,8.00
2023-02-02T23:29:05.196Z,5.60
2023-02-02T23:31:33.450Z,4.20
2023-02-02T23:34:01.652Z,4.90
2023-02-02T23:36:29.517Z,5.40
2023-02-02T23:38:57.545Z,5.40
2023-02-02T23:41:25.714Z,6.00
2023-02-02T23:43:53.678Z,5.00
2023-02-02T23:46:21.934Z,6.70
2023-02-02T23:48:50.535Z,6.60
2023-02-02T23:51:18.431Z,6.60
2023-02-02T23:53:47.002Z,5.50
2023-02-02T23:56:14.945Z,4.70
2023-02-02T23:58:42.991Z,4.60
